LIBF/FOG METAR and TAF weather

Enter ICAO airport designator
Station Type Date Time Source
LIBF METAR 2020/07/04 15:50 UTC NOAA

LIBF 041550Z 34011KT 310V010 9999 FEW030 25/14 Q1014


Station Type Date Time Source
LIBF Decoded METAR 2020/07/04 15:50 UTC NOAA

Station name not available
Jul 04, 2020 - 11:50 AM EDT / 2020.07.04 1550 UTC
Wind: from the NNW (340 degrees) at 13 MPH (11 KT) (direction variable):0
Visibility: greater than 7 mile(s):0
Sky conditions: mostly clear
Temperature: 77 F (25 C)
Dew Point: 57 F (14 C)
Relative Humidity: 50%
Pressure (altimeter): 29.94 in. Hg (1014 hPa)
ob: LIBF 041550Z 34011KT 310V010 9999 FEW030 25/14 Q1014
cycle: 16

Station Type Date Time Source
LIBF TAF 2015/04/03 06:00 UTC NOAA

TAF LIBF 030500Z 0306/0406 35014KT 9999 FEW030

Example: see airport list